.
WxDataArchive / Data Records for 2011-04-01
2011-03-31 April 2011 2011-04-02

Data Records for Friday, 01 April 2011

Time	Temp	Chill	HIndex	Humid	Dewpt	 Wind 	HiWind	WindDir	Rain 	Barom 
-----	----	-----	------	-----	-----	------	------	-------	-----	----- 
00:00	38.0	38.0	38.0	43	17.5	0	0	---	0.00	29.726 
00:05	37.8	37.8	37.8	43	17.3	0	1	338	0.00	29.726 
00:10	37.6	37.6	37.6	43	17.2	0	0	---	0.00	29.726 
00:15	37.3	37.3	37.3	43	16.9	0	0	---	0.00	29.725 
00:20	37.3	37.3	37.3	44	17.4	0	0	---	0.00	29.725 
00:25	37.2	37.2	37.2	44	17.3	0	0	---	0.00	29.725 
00:30	37.2	37.2	37.2	44	17.3	0	0	---	0.00	29.725 
00:35	37.2	37.2	37.2	44	17.3	0	1	338	0.00	29.725 
00:40	37.2	37.2	37.2	44	17.3	0	1	338	0.00	29.725 
00:45	37.2	37.2	37.2	44	17.3	0	0	---	0.00	29.723 
00:50	37.0	37.0	37.0	44	17.1	0	0	---	0.00	29.723 
00:55	37.0	37.0	37.0	45	17.7	0	1	338	0.00	29.723 
01:00	36.9	36.9	36.9	45	17.6	0	0	---	0.00	29.719 
01:05	36.8	36.8	36.8	45	17.5	0	0	---	0.00	29.719 
01:10	36.6	36.6	36.6	45	17.3	0	0	---	0.00	29.719 
01:15	36.5	36.5	36.5	46	17.7	0	1	338	0.00	29.709 
01:20	36.3	36.3	36.3	46	17.5	0	1	338	0.00	29.709 
01:25	36.3	36.3	36.3	46	17.5	0	0	---	0.00	29.709 
01:30	36.2	36.2	36.2	46	17.4	0	0	---	0.00	29.707 
01:35	35.9	35.9	35.9	46	17.2	0	0	---	0.00	29.707 
01:40	35.9	35.9	35.9	47	17.7	0	1	338	0.00	29.707 
01:45	35.8	35.8	35.8	47	17.6	0	0	---	0.00	29.701 
01:50	35.8	35.8	35.8	47	17.6	0	0	---	0.00	29.701 
01:55	35.6	35.6	35.6	47	17.4	0	0	---	0.00	29.701 
02:00	35.6	35.6	35.6	47	17.4	0	0	---	0.00	29.694 
02:05	35.5	35.5	35.5	47	17.3	0	0	---	0.00	29.694 
02:10	35.5	35.5	35.5	47	17.3	0	0	---	0.00	29.694 
02:15	35.3	35.3	35.3	47	17.1	0	0	---	0.00	29.688 
02:20	35.0	35.0	35.0	48	17.3	0	0	---	0.00	29.688 
02:25	34.9	34.9	34.9	48	17.2	0	0	---	0.00	29.688 
02:30	34.4	34.4	34.4	50	17.7	0	1	338	0.00	29.686 
02:35	33.8	33.8	33.8	52	18.1	0	1	338	0.00	29.686 
02:40	33.4	33.4	33.4	52	17.7	0	0	---	0.00	29.686 
02:45	32.9	32.9	32.9	52	17.2	0	0	---	0.00	29.679 
02:50	32.5	32.5	32.5	53	17.3	0	0	---	0.00	29.679 
02:55	32.2	32.2	32.2	54	17.4	0	0	---	0.00	29.679 
03:00	31.9	31.9	31.9	55	17.6	0	0	---	0.00	29.675 
03:05	31.6	31.6	31.6	55	17.3	0	0	---	0.00	29.675 
03:10	31.2	31.2	31.2	56	17.4	0	0	---	0.00	29.675 
03:15	30.9	30.9	30.9	57	17.5	0	0	---	0.00	29.668 
03:20	30.7	30.7	30.7	58	17.7	0	0	---	0.00	29.668 
03:25	30.4	30.4	30.4	59	17.8	0	0	---	0.00	29.668 
03:30	30.1	30.1	30.1	59	17.5	0	0	---	0.00	29.665 
03:35	30.0	30.0	30.0	60	17.8	0	0	---	0.00	29.665 
03:40	29.8	29.8	29.8	59	17.2	0	0	---	0.00	29.665 
03:45	29.8	29.8	29.8	59	17.2	0	0	---	0.00	29.662 
03:50	29.8	29.8	29.8	59	17.2	0	0	---	0.00	29.662 
03:55	29.7	29.7	29.7	59	17.1	0	0	---	0.00	29.662 
04:00	29.5	29.5	29.5	60	17.3	0	0	---	0.00	29.656 
04:05	29.4	29.4	29.4	60	17.3	0	0	---	0.00	29.656 
04:10	29.1	29.1	29.1	61	17.4	0	0	---	0.00	29.656 
04:15	29.0	29.0	29.0	61	17.3	0	0	---	0.00	29.655 
04:20	28.8	28.8	28.8	62	17.4	0	0	---	0.00	29.655 
04:25	28.7	28.7	28.7	62	17.4	0	0	---	0.00	29.655 
04:30	28.5	28.5	28.5	63	17.5	0	0	---	0.00	29.655 
04:35	28.5	28.5	28.5	63	17.5	0	0	---	0.00	29.655 
04:40	28.7	28.7	28.7	63	17.7	0	0	---	0.00	29.655 
04:45	28.7	28.7	28.7	63	17.7	0	0	---	0.00	29.659 
04:50	28.8	28.8	28.8	63	17.8	0	0	---	0.00	29.659 
04:55	29.0	29.0	29.0	62	17.6	0	1	338	0.00	29.659 
05:00	29.1	29.1	29.1	62	17.7	0	1	338	0.00	29.658 
05:05	29.1	29.1	29.1	62	17.7	0	0	---	0.00	29.658 
05:10	29.1	29.1	29.1	61	17.4	0	0	---	0.00	29.658 
05:15	29.1	29.1	29.1	62	17.7	0	0	---	0.00	29.654 
05:20	29.1	29.1	29.1	62	17.7	0	0	---	0.00	29.654 
05:25	29.0	29.0	29.0	62	17.6	0	0	---	0.00	29.654 
05:30	28.8	28.8	28.8	62	17.4	0	0	---	0.00	29.654 
05:35	28.5	28.5	28.5	62	17.2	0	0	---	0.00	29.654 
05:40	28.2	28.2	28.2	63	17.2	0	0	---	0.00	29.654 
05:45	28.1	28.1	28.1	63	17.2	0	0	---	0.00	29.657 
05:50	27.9	27.9	27.9	64	17.3	0	0	---	0.00	29.657 
05:55	27.9	27.9	27.9	64	17.3	0	0	---	0.00	29.657 
06:00	27.8	27.8	27.8	64	17.2	0	0	---	0.00	29.656 
06:05	27.8	27.8	27.8	65	17.6	0	1	338	0.00	29.656 
06:10	27.8	27.8	27.8	64	17.2	0	0	---	0.00	29.656 
06:15	27.6	27.6	27.6	65	17.4	0	0	---	0.00	29.659 
06:20	27.6	27.6	27.6	65	17.4	0	0	---	0.00	29.659 
06:25	27.5	27.5	27.5	65	17.3	0	0	---	0.00	29.659 
06:30	27.3	27.3	27.3	65	17.1	0	0	---	0.00	29.666 
06:35	27.2	27.2	27.2	65	17.0	0	0	---	0.00	29.666 
06:40	27.0	27.0	27.0	66	17.2	0	0	---	0.00	29.666 
06:45	26.7	26.7	26.7	66	16.9	0	0	---	0.00	29.667 
06:50	26.7	26.7	26.7	66	16.9	0	0	---	0.00	29.667 
06:55	26.6	26.6	26.6	67	17.1	0	0	---	0.00	29.667 
07:00	26.4	26.4	26.4	67	17.0	0	0	---	0.00	29.669 
07:05	26.3	26.3	26.3	67	16.9	0	0	---	0.00	29.669 
07:10	26.0	26.0	26.0	67	16.6	0	0	---	0.00	29.669 
07:15	26.0	26.0	26.0	68	16.9	0	0	---	0.00	29.673 
07:20	26.0	26.0	26.0	68	16.9	0	0	---	0.00	29.673 
07:25	26.0	26.0	26.0	68	16.9	0	0	---	0.00	29.673 
07:30	25.7	25.7	25.7	68	16.6	0	0	---	0.00	29.679 
07:35	25.7	25.7	25.7	69	17.0	0	0	---	0.00	29.679 
07:40	25.6	25.6	25.6	69	16.9	0	0	---	0.00	29.679 
07:45	25.6	25.6	25.6	69	16.9	0	0	---	0.00	29.681 
07:50	25.4	25.4	25.4	69	16.7	0	0	---	0.00	29.681 
07:55	25.4	25.4	25.4	69	16.7	0	0	---	0.00	29.681 
08:00	25.6	25.6	25.6	69	16.9	0	0	---	0.00	29.681 
08:05	25.7	25.7	25.7	70	17.3	0	0	---	0.00	29.681 
08:10	26.0	26.0	26.0	70	17.6	0	0	---	0.00	29.681 
08:15	26.6	26.6	26.6	70	18.2	0	0	---	0.00	29.688 
08:20	27.3	27.3	27.3	69	18.5	0	0	---	0.00	29.688 
08:25	28.1	28.1	28.1	68	18.9	0	1	338	0.00	29.688 
08:30	28.8	28.8	28.8	66	18.9	0	0	---	0.00	29.690 
08:35	29.4	29.4	29.4	64	18.8	0	1	338	0.00	29.690 
08:40	30.0	30.0	30.0	63	19.0	0	1	338	0.00	29.690 
08:45	30.6	30.6	30.6	62	19.2	0	2	338	0.00	29.689 
08:50	31.2	31.2	31.2	61	19.3	0	1	338	0.00	29.689 
08:55	31.6	31.6	31.6	60	19.3	0	1	338	0.00	29.689 
09:00	31.9	31.9	31.9	58	18.8	0	1	338	0.00	29.694 
09:05	32.5	32.5	32.5	57	19.0	0	2	338	0.00	29.694 
09:10	33.1	33.1	33.1	56	19.1	0	1	338	0.00	29.694 
09:15	33.5	33.5	33.5	54	18.7	0	2	338	0.00	29.697 
09:20	33.8	33.8	33.8	53	18.5	0	2	338	0.00	29.697 
09:25	34.3	34.3	34.3	52	18.5	1	2	315	0.00	29.697 
09:30	34.9	34.9	34.9	51	18.6	0	2	315	0.00	29.697 
09:35	35.2	35.2	35.2	48	17.5	1	2	315	0.00	29.697 
09:40	35.6	35.6	35.6	48	17.9	1	3	315	0.00	29.697 
09:45	36.3	36.3	36.3	47	18.0	0	2	315	0.00	29.690 
09:50	36.9	36.9	36.9	46	18.1	1	2	315	0.00	29.690 
09:55	37.5	37.5	37.5	46	18.6	1	2	225	0.00	29.690 
10:00	38.2	38.2	38.2	46	19.3	0	2	225	0.00	29.685 
10:05	38.8	38.8	38.8	42	17.7	1	3	292	0.00	29.685 
10:10	39.5	39.5	39.5	43	18.9	1	3	315	0.00	29.685 
10:15	39.9	39.9	39.9	39	17.0	1	3	338	0.00	29.683 
10:20	40.2	40.2	40.2	39	17.2	1	3	225	0.00	29.683 
10:25	40.8	40.8	40.8	41	18.9	0	2	292	0.00	29.683 
10:30	41.3	41.3	41.3	39	18.2	1	3	292	0.00	29.682 
10:35	41.9	41.9	41.9	37	17.5	1	3	270	0.00	29.682 
10:40	42.2	42.2	42.2	36	17.2	2	5	338	0.00	29.682 
10:45	42.8	42.8	42.8	38	19.0	1	3	270	0.00	29.682 
10:50	43.3	43.3	43.3	36	18.2	1	4	248	0.00	29.682 
10:55	44.1	44.1	44.1	33	16.9	1	4	248	0.00	29.682 
11:00	44.3	44.3	44.3	31	15.6	2	5	270	0.00	29.680 
11:05	44.6	44.6	44.6	32	16.6	1	5	270	0.00	29.680 
11:10	44.9	44.9	44.9	30	15.4	1	4	270	0.00	29.680 
11:15	45.2	45.2	45.2	29	14.9	2	5	248	0.00	29.681 
11:20	45.4	45.4	45.4	30	15.8	1	4	270	0.00	29.681 
11:25	45.8	45.8	45.8	30	16.1	2	5	248	0.00	29.681 
11:30	46.2	46.2	46.2	30	16.5	1	3	248	0.00	29.676 
11:35	46.7	46.7	46.7	33	19.1	1	3	315	0.00	29.676 
11:40	47.1	47.1	47.1	30	17.3	1	3	248	0.00	29.676 
11:45	47.4	47.4	47.4	29	16.8	2	4	270	0.00	29.675 
11:50	47.7	47.7	47.7	27	15.4	1	4	270	0.00	29.675 
11:55	47.7	47.7	47.7	29	17.0	2	6	270	0.00	29.675 
12:00	48.2	48.2	48.2	30	18.2	2	6	248	0.00	29.673 
12:05	48.0	48.0	48.0	28	16.5	2	4	315	0.00	29.673 
12:10	48.2	48.2	48.2	31	19.0	2	4	315	0.00	29.673 
12:15	48.2	48.2	48.2	29	17.5	2	5	248	0.00	29.670 
12:20	48.5	48.5	48.5	29	17.7	2	5	270	0.00	29.670 
12:25	48.8	48.8	48.8	27	16.3	2	4	270	0.00	29.670 
12:30	48.9	48.9	48.9	28	17.2	2	7	270	0.00	29.667 
12:35	49.2	49.2	49.2	28	17.5	1	3	270	0.00	29.667 
12:40	49.2	49.2	49.2	28	17.5	2	4	338	0.00	29.667 
12:45	49.4	49.4	49.4	29	18.5	1	4	270	0.00	29.661 
12:50	49.9	49.9	49.9	28	18.1	2	5	248	0.00	29.661 
12:55	49.6	49.6	49.6	26	16.1	2	4	248	0.00	29.661 
13:00	49.8	48.6	49.8	26	16.3	4	11	270	0.00	29.659 
13:05	49.8	49.8	49.8	28	18.0	3	7	270	0.00	29.659 
13:10	49.6	49.6	49.6	27	17.0	3	7	270	0.00	29.659 
13:15	49.9	49.9	49.9	28	18.1	3	5	248	0.00	29.656 
13:20	49.5	49.5	49.5	27	16.9	2	10	315	0.00	29.656 
13:25	49.4	49.4	49.4	26	16.0	3	6	248	0.00	29.656 
13:30	49.6	49.6	49.6	27	17.0	3	7	248	0.00	29.654 
13:35	50.1	50.1	50.1	28	18.3	2	4	270	0.00	29.654 
13:40	50.7	50.7	50.7	28	18.8	3	6	270	0.00	29.654 
13:45	50.8	50.8	50.8	25	16.3	3	7	248	0.00	29.648 
13:50	50.8	50.8	50.8	27	18.0	2	5	270	0.00	29.648 
13:55	51.0	51.0	51.0	26	17.3	1	6	315	0.00	29.648 
14:00	50.7	50.7	50.7	24	15.2	3	6	270	0.00	29.643 
14:05	50.4	50.4	50.4	27	17.7	2	5	248	0.00	29.643 
14:10	49.9	49.9	49.9	25	15.5	2	5	270	0.00	29.643 
14:15	49.9	49.9	49.9	27	17.3	2	5	248	0.00	29.644 
14:20	50.7	50.7	50.7	27	18.0	2	6	338	0.00	29.644 
14:25	51.0	51.0	51.0	26	17.3	3	6	270	0.00	29.644 
14:30	51.1	51.1	51.1	26	17.4	2	5	270	0.00	29.640 
14:35	51.4	51.4	51.4	28	19.4	2	5	248	0.00	29.640 
14:40	51.4	51.4	51.4	26	17.7	2	5	248	0.00	29.640 
14:45	50.8	50.8	50.8	26	17.2	2	5	248	0.00	29.632 
14:50	49.9	49.9	49.9	27	17.3	2	6	270	0.00	29.632 
14:55	49.6	49.6	49.6	27	17.0	3	5	270	0.00	29.632 
15:00	49.4	49.4	49.4	27	16.8	3	6	270	0.00	29.630 
15:05	49.4	49.4	49.4	28	17.7	2	6	338	0.00	29.630 
15:10	49.5	49.5	49.5	28	17.8	2	5	248	0.00	29.630 
15:15	49.5	49.5	49.5	28	17.8	2	5	270	0.00	29.630 
15:20	49.5	49.5	49.5	28	17.8	2	5	270	0.00	29.630 
15:25	49.8	49.8	49.8	29	18.8	2	4	270	0.00	29.630 
15:30	49.9	49.9	49.9	30	19.7	3	6	270	0.00	29.627 
15:35	50.2	50.2	50.2	28	18.4	2	7	270	0.00	29.627 
15:40	50.2	50.2	50.2	27	17.5	2	6	270	0.00	29.627 
15:45	50.2	50.2	50.2	28	18.4	3	6	248	0.00	29.621 
15:50	50.4	50.4	50.4	27	17.7	3	7	248	0.00	29.621 
15:55	50.7	50.7	50.7	27	18.0	2	4	270	0.00	29.621 
16:00	50.5	50.5	50.5	28	18.6	1	4	315	0.00	29.616 
16:05	50.5	50.5	50.5	29	19.4	1	2	248	0.00	29.616 
16:10	51.0	51.0	51.0	28	19.1	2	6	292	0.00	29.616 
16:15	51.3	51.3	51.3	27	18.5	3	7	248	0.00	29.615 
16:20	50.8	50.8	50.8	28	18.9	3	9	292	0.00	29.615 
16:25	50.4	50.4	50.4	28	18.5	2	5	248	0.00	29.615 
16:30	50.4	50.4	50.4	28	18.5	1	3	248	0.00	29.614 
16:35	50.2	50.2	50.2	29	19.2	3	9	248	0.00	29.614 
16:40	49.8	49.8	49.8	29	18.8	3	8	248	0.00	29.614 
16:45	49.5	49.5	49.5	31	20.1	1	3	248	0.00	29.613 
16:50	49.6	49.6	49.6	32	21.0	1	4	248	0.00	29.613 
16:55	49.2	49.2	49.2	33	21.3	3	6	248	0.00	29.613 
17:00	48.9	48.9	48.9	36	23.1	3	10	292	0.00	29.616 
17:05	48.8	48.8	48.8	37	23.7	2	6	248	0.00	29.616 
17:10	48.8	48.8	48.8	37	23.7	1	3	248	0.00	29.616 
17:15	48.8	48.8	48.8	39	25.0	2	6	270	0.00	29.613 
17:20	48.5	48.5	48.5	39	24.7	2	5	248	0.00	29.613 
17:25	48.5	48.5	48.5	41	25.9	1	5	248	0.00	29.613 
17:30	48.3	48.3	48.3	40	25.1	2	6	248	0.00	29.611 
17:35	48.3	48.3	48.3	42	26.3	2	4	248	0.00	29.611 
17:40	48.2	48.2	48.2	42	26.2	2	5	248	0.00	29.611 
17:45	48.0	48.0	48.0	43	26.6	1	4	248	0.00	29.610 
17:50	48.2	48.2	48.2	43	26.8	1	4	248	0.00	29.610 
17:55	48.0	48.0	48.0	43	26.6	1	3	248	0.00	29.610 
18:00	47.9	47.9	47.9	44	27.0	1	3	248	0.00	29.609 
18:05	47.9	47.9	47.9	43	26.5	1	4	248	0.00	29.609 
18:10	47.7	47.7	47.7	43	26.3	0	3	248	0.00	29.609 
18:15	47.6	47.6	47.6	43	26.2	1	3	248	0.00	29.609 
18:20	47.4	47.4	47.4	44	26.6	1	4	248	0.00	29.609 
18:25	47.0	47.0	47.0	49	28.8	3	6	248	0.00	29.609 
18:30	46.1	46.1	46.1	56	31.3	3	5	248	0.00	29.621 
18:35	45.4	45.4	45.4	59	31.9	1	4	248	0.00	29.621 
18:40	44.8	44.8	44.8	61	32.2	0	2	248	0.00	29.621 
18:45	44.6	44.6	44.6	64	33.2	2	4	248	0.00	29.626 
18:50	44.5	44.5	44.5	67	34.2	1	5	248	0.00	29.626 
18:55	44.1	44.1	44.1	69	34.6	2	4	248	0.00	29.626 
19:00	43.5	43.5	43.5	72	35.1	1	4	248	0.00	29.631 
19:05	43.2	43.2	43.2	74	35.5	0	1	248	0.00	29.631 
19:10	42.9	42.9	42.9	76	35.9	0	2	248	0.00	29.631 
19:15	42.6	42.6	42.6	78	36.2	1	3	248	0.00	29.639 
19:20	42.1	42.1	42.1	80	36.4	1	3	315	0.00	29.639 
19:25	41.6	41.6	41.6	81	36.2	2	4	292	0.01	29.639 
19:30	41.2	41.2	41.2	83	36.4	2	3	225	0.01	29.642 
19:35	40.8	40.8	40.8	84	36.3	1	4	225	0.00	29.642 
19:40	40.5	40.5	40.5	85	36.4	1	3	225	0.01	29.642 
19:45	40.1	40.1	40.1	86	36.3	1	3	225	0.01	29.645 
19:50	39.8	39.8	39.8	87	36.3	2	4	248	0.00	29.645 
19:55	39.2	39.2	39.2	87	35.7	2	4	270	0.01	29.645 
20:00	38.8	38.8	38.8	88	35.6	1	4	270	0.01	29.652 
20:05	38.5	38.5	38.5	88	35.3	1	3	315	0.00	29.652 
20:10	38.3	38.3	38.3	88	35.1	1	3	292	0.01	29.652 
20:15	38.3	38.3	38.3	89	35.3	1	2	292	0.00	29.649 
20:20	38.3	38.3	38.3	89	35.3	0	1	292	0.00	29.649 
20:25	38.3	38.3	38.3	90	35.6	0	1	292	0.00	29.649 
20:30	38.3	38.3	38.3	90	35.6	0	1	292	0.00	29.650 
20:35	38.3	38.3	38.3	90	35.6	0	1	292	0.00	29.650 
20:40	38.3	38.3	38.3	91	35.9	0	2	292	0.00	29.650 
20:45	38.3	38.3	38.3	91	35.9	1	2	292	0.00	29.654 
20:50	38.3	38.3	38.3	91	35.9	1	2	292	0.00	29.654 
20:55	38.3	38.3	38.3	91	35.9	0	2	292	0.00	29.654 
21:00	38.3	38.3	38.3	91	35.9	0	2	292	0.00	29.655 
21:05	38.3	38.3	38.3	91	35.9	0	1	248	0.00	29.655 
21:10	38.3	38.3	38.3	91	35.9	0	1	248	0.00	29.655 
21:15	38.3	38.3	38.3	92	36.2	0	2	248	0.00	29.653 
21:20	38.3	38.3	38.3	92	36.2	1	2	248	0.00	29.653 
21:25	38.3	38.3	38.3	92	36.2	0	1	248	0.00	29.653 
21:30	38.5	38.5	38.5	92	36.4	0	0	---	0.00	29.657 
21:35	38.5	38.5	38.5	92	36.4	0	1	248	0.00	29.657 
21:40	38.5	38.5	38.5	92	36.4	0	1	248	0.00	29.657 
21:45	38.5	38.5	38.5	92	36.4	0	1	248	0.00	29.658 
21:50	38.6	38.6	38.6	92	36.5	0	2	248	0.00	29.658 
21:55	38.6	38.6	38.6	92	36.5	0	1	248	0.00	29.658 
22:00	38.6	38.6	38.6	92	36.5	0	3	248	0.00	29.655 
22:05	38.6	38.6	38.6	92	36.5	0	2	248	0.00	29.655 
22:10	38.6	38.6	38.6	92	36.5	0	3	248	0.00	29.655 
22:15	38.6	38.6	38.6	92	36.5	0	1	248	0.00	29.648 
22:20	38.5	38.5	38.5	92	36.4	0	2	248	0.00	29.648 
22:25	38.5	38.5	38.5	92	36.4	0	1	248	0.00	29.648 
22:30	38.5	38.5	38.5	92	36.4	0	1	248	0.00	29.648 
22:35	38.5	38.5	38.5	92	36.4	0	1	248	0.00	29.648 
22:40	38.6	38.6	38.6	92	36.5	0	2	248	0.00	29.648 
22:45	38.6	38.6	38.6	92	36.5	0	1	248	0.00	29.647 
22:50	38.8	38.8	38.8	92	36.7	0	2	248	0.00	29.647 
22:55	38.8	38.8	38.8	92	36.7	0	1	248	0.00	29.647 
23:00	38.8	38.8	38.8	92	36.7	0	1	248	0.00	29.644 
23:05	38.8	38.8	38.8	92	36.7	0	1	248	0.00	29.644 
23:10	38.9	38.9	38.9	92	36.8	0	2	248	0.00	29.644 
23:15	38.9	38.9	38.9	92	36.8	0	1	248	0.00	29.641 
23:20	38.9	38.9	38.9	92	36.8	0	1	248	0.00	29.641 
23:25	38.9	38.9	38.9	92	36.8	0	1	248	0.00	29.641 
23:30	38.9	38.9	38.9	92	36.8	0	2	248	0.00	29.639 
23:35	39.1	39.1	39.1	92	37.0	0	1	248	0.00	29.639 
23:40	39.1	39.1	39.1	92	37.0	0	1	248	0.00	29.639 
23:45	39.1	39.1	39.1	92	37.0	0	0	---	0.00	29.638 
23:50	39.1	39.1	39.1	92	37.0	0	2	248	0.00	29.638 
23:55	39.1	39.1	39.1	93	37.2	0	1	248	0.00	29.638 

CoCoRaHS
IN-AL-39
A2 Web Hosting
Creative Commons License
GoDaddy
search engine by freefind advanced

loaded 2018-11-19 19:39:23 • last modified 2010-11-18 10:43:29
Privacy PolicyDisclaimer
• wx.awcolley.com is powered by PmWiki v.2002016 •
• all content (unless otherwise noted) © 2018 A W Colley